sensor_id;sensor_type;location;lat;lon;timestamp;pressure;altitude;pressure_sealevel;temperature;humidity
39897;BME280;25567;48.276;14.242;2022-12-26T00:02:19;98607.78;;;0.53;100.00
39897;BME280;25567;48.276;14.242;2022-12-26T00:04:46;98606.00;;;0.54;100.00
39897;BME280;25567;48.276;14.242;2022-12-26T00:07:18;98620.69;;;0.55;100.00
39897;BME280;25567;48.276;14.242;2022-12-26T00:09:45;98617.25;;;0.54;100.00
39897;BME280;25567;48.276;14.242;2022-12-26T00:12:12;98616.09;;;0.57;100.00
39897;BME280;25567;48.276;14.242;2022-12-26T00:14:39;98626.38;;;0.58;100.00
39897;BME280;25567;48.276;14.242;2022-12-26T00:17:06;98633.13;;;0.69;100.00
39897;BME280;25567;48.276;14.242;2022-12-26T00:19:32;98642.72;;;0.60;100.00
39897;BME280;25567;48.276;14.242;2022-12-26T00:22:00;98641.06;;;0.51;100.00
39897;BME280;25567;48.276;14.242;2022-12-26T00:24:27;98638.94;;;0.55;100.00
39897;BME280;25567;48.276;14.242;2022-12-26T00:26:54;98638.47;;;0.68;100.00
39897;BME280;25567;48.276;14.242;2022-12-26T00:29:20;98634.34;;;0.40;100.00
39897;BME280;25567;48.276;14.242;2022-12-26T00:31:50;98638.09;;;0.38;100.00
39897;BME280;25567;48.276;14.242;2022-12-26T00:34:17;98638.44;;;0.43;100.00
39897;BME280;25567;48.276;14.242;2022-12-26T00:36:44;98642.50;;;0.45;100.00
39897;BME280;25567;48.276;14.242;2022-12-26T00:39:11;98651.78;;;0.40;100.00
39897;BME280;25567;48.276;14.242;2022-12-26T00:41:37;98643.41;;;0.28;100.00
39897;BME280;25567;48.276;14.242;2022-12-26T00:44:04;98643.28;;;0.29;100.00
39897;BME280;25567;48.276;14.242;2022-12-26T00:46:31;98648.19;;;0.32;100.00
39897;BME280;25567;48.276;14.242;2022-12-26T00:49:01;98643.69;;;0.59;100.00
39897;BME280;25567;48.276;14.242;2022-12-26T00:51:28;98647.66;;;0.29;100.00
39897;BME280;25567;48.276;14.242;2022-12-26T00:53:54;98646.03;;;0.28;100.00
39897;BME280;25567;48.276;14.242;2022-12-26T00:56:21;98646.16;;;0.18;100.00
39897;BME280;25567;48.276;14.242;2022-12-26T00:58:48;98660.53;;;0.22;100.00
39897;BME280;25567;48.276;14.242;2022-12-26T01:01:20;98661.84;;;0.26;100.00
39897;BME280;25567;48.276;14.242;2022-12-26T01:03:48;98660.69;;;0.21;100.00
39897;BME280;25567;48.276;14.242;2022-12-26T01:06:15;98663.13;;;0.22;100.00
39897;BME280;25567;48.276;14.242;2022-12-26T01:08:42;98670.66;;;0.25;100.00
39897;BME280;25567;48.276;14.242;2022-12-26T01:11:12;98666.94;;;0.36;100.00
39897;BME280;25567;48.276;14.242;2022-12-26T01:13:39;98675.72;;;0.27;100.00
39897;BME280;25567;48.276;14.242;2022-12-26T01:16:06;98683.25;;;0.38;100.00
39897;BME280;25567;48.276;14.242;2022-12-26T01:18:34;98673.31;;;0.33;100.00
39897;BME280;25567;48.276;14.242;2022-12-26T01:21:04;98678.53;;;0.33;100.00
39897;BME280;25567;48.276;14.242;2022-12-26T01:23:31;98678.03;;;0.38;100.00
39897;BME280;25567;48.276;14.242;2022-12-26T01:26:04;98686.16;;;0.27;100.00
39897;BME280;25567;48.276;14.242;2022-12-26T01:28:44;98681.94;;;0.34;100.00
39897;BME280;25567;48.276;14.242;2022-12-26T01:31:11;98680.66;;;0.46;100.00
39897;BME280;25567;48.276;14.242;2022-12-26T01:33:38;98677.75;;;0.41;100.00
39897;BME280;25567;48.276;14.242;2022-12-26T01:36:05;98676.44;;;0.45;100.00
39897;BME280;25567;48.276;14.242;2022-12-26T01:38:31;98680.47;;;0.40;100.00
39897;BME280;25567;48.276;14.242;2022-12-26T01:40:59;98683.06;;;0.31;100.00
39897;BME280;25567;48.276;14.242;2022-12-26T01:43:52;98686.81;;;0.29;100.00
39897;BME280;25567;48.276;14.242;2022-12-26T01:46:28;98692.84;;;0.29;100.00
39897;BME280;25567;48.276;14.242;2022-12-26T01:49:00;98689.22;;;0.22;100.00
39897;BME280;25567;48.276;14.242;2022-12-26T01:51:30;98691.38;;;0.27;100.00
39897;BME280;25567;48.276;14.242;2022-12-26T01:54:01;98694.78;;;0.27;100.00
39897;BME280;25567;48.276;14.242;2022-12-26T01:56:50;98694.94;;;0.26;100.00
39897;BME280;25567;48.276;14.242;2022-12-26T01:59:21;98685.03;;;0.29;100.00
39897;BME280;25567;48.276;14.242;2022-12-26T02:01:51;98678.81;;;0.30;100.00
39897;BME280;25567;48.276;14.242;2022-12-26T02:04:24;98682.31;;;0.47;100.00
39897;BME280;25567;48.276;14.242;2022-12-26T02:07:08;98689.31;;;0.39;100.00
39897;BME280;25567;48.276;14.242;2022-12-26T02:09:35;98683.25;;;0.38;100.00
39897;BME280;25567;48.276;14.242;2022-12-26T02:12:06;98687.06;;;0.44;100.00
39897;BME280;25567;48.276;14.242;2022-12-26T02:14:56;98684.38;;;0.36;100.00
39897;BME280;25567;48.276;14.242;2022-12-26T02:17:24;98702.25;;;0.22;100.00
39897;BME280;25567;48.276;14.242;2022-12-26T02:19:56;98695.88;;;0.16;100.00
39897;BME280;25567;48.276;14.242;2022-12-26T02:35:57;98682.66;;;0.10;100.00
39897;BME280;25567;48.276;14.242;2022-12-26T02:41:30;98685.25;;;0.10;100.00
39897;BME280;25567;48.276;14.242;2022-12-26T02:52:30;98686.41;;;0.15;100.00
39897;BME280;25567;48.276;14.242;2022-12-26T02:55:20;98683.41;;;0.37;100.00
39897;BME280;25567;48.276;14.242;2022-12-26T02:58:18;98682.72;;;0.26;100.00
39897;BME280;25567;48.276;14.242;2022-12-26T03:01:05;98681.09;;;0.25;100.00
39897;BME280;25567;48.276;14.242;2022-12-26T03:03:54;98685.13;;;0.20;100.00
39897;BME280;25567;48.276;14.242;2022-12-26T03:06:38;98683.66;;;0.17;100.00
39897;BME280;25567;48.276;14.242;2022-12-26T03:09:24;98683.56;;;0.27;100.00
39897;BME280;25567;48.276;14.242;2022-12-26T03:12:28;98682.06;;;0.24;100.00
39897;BME280;25567;48.276;14.242;2022-12-26T03:15:15;98685.66;;;0.23;100.00
39897;BME280;25567;48.276;14.242;2022-12-26T03:17:51;98680.00;;;0.36;100.00
39897;BME280;25567;48.276;14.242;2022-12-26T03:20:23;98687.31;;;0.32;100.00
39897;BME280;25567;48.276;14.242;2022-12-26T03:22:55;98679.81;;;0.29;100.00
39897;BME280;25567;48.276;14.242;2022-12-26T03:28:22;98675.06;;;0.33;100.00
39897;BME280;25567;48.276;14.242;2022-12-26T03:30:51;98672.63;;;0.31;100.00
39897;BME280;25567;48.276;14.242;2022-12-26T03:33:19;98667.91;;;0.27;100.00
39897;BME280;25567;48.276;14.242;2022-12-26T03:36:04;98670.34;;;0.28;100.00
39897;BME280;25567;48.276;14.242;2022-12-26T03:38:37;98668.50;;;0.21;100.00
39897;BME280;25567;48.276;14.242;2022-12-26T03:41:26;98664.75;;;0.15;100.00
39897;BME280;25567;48.276;14.242;2022-12-26T03:50:11;98664.56;;;0.08;100.00
39897;BME280;25567;48.276;14.242;2022-12-26T03:53:04;98659.00;;;0.11;100.00
39897;BME280;25567;48.276;14.242;2022-12-26T03:56:05;98663.31;;;-0.06;100.00
39897;BME280;25567;48.276;14.242;2022-12-26T04:01:49;98671.78;;;-0.12;100.00
39897;BME280;25567;48.276;14.242;2022-12-26T04:04:33;98672.47;;;-0.02;100.00
39897;BME280;25567;48.276;14.242;2022-12-26T04:07:23;98670.66;;;-0.09;100.00
39897;BME280;25567;48.276;14.242;2022-12-26T04:13:28;98674.72;;;-0.07;100.00
39897;BME280;25567;48.276;14.242;2022-12-26T04:16:34;98681.84;;;-0.17;100.00
39897;BME280;25567;48.276;14.242;2022-12-26T04:22:11;98656.16;;;-0.12;100.00
39897;BME280;25567;48.276;14.242;2022-12-26T04:25:09;98659.72;;;-0.13;100.00
39897;BME280;25567;48.276;14.242;2022-12-26T04:28:13;98653.13;;;0.09;100.00
39897;BME280;25567;48.276;14.242;2022-12-26T04:30:59;98662.69;;;-0.08;100.00
39897;BME280;25567;48.276;14.242;2022-12-26T04:33:52;98672.91;;;-0.14;100.00
39897;BME280;25567;48.276;14.242;2022-12-26T04:36:48;98682.81;;;-0.18;100.00
39897;BME280;25567;48.276;14.242;2022-12-26T04:39:33;98668.66;;;-0.15;100.00
39897;BME280;25567;48.276;14.242;2022-12-26T04:42:18;98672.56;;;-0.20;100.00
39897;BME280;25567;48.276;14.242;2022-12-26T04:45:02;98663.75;;;-0.19;100.00
39897;BME280;25567;48.276;14.242;2022-12-26T04:47:31;98668.19;;;-0.11;100.00
39897;BME280;25567;48.276;14.242;2022-12-26T04:50:05;98659.72;;;-0.13;100.00
39897;BME280;25567;48.276;14.242;2022-12-26T04:52:40;98667.22;;;-0.10;100.00
39897;BME280;25567;48.276;14.242;2022-12-26T04:55:23;98653.19;;;-0.17;100.00
39897;BME280;25567;48.276;14.242;2022-12-26T04:57:54;98658.88;;;-0.13;100.00
39897;BME280;25567;48.276;14.242;2022-12-26T05:00:22;98667.38;;;-0.11;100.00
39897;BME280;25567;48.276;14.242;2022-12-26T05:02:54;98674.53;;;-0.13;100.00
39897;BME280;25567;48.276;14.242;2022-12-26T05:05:49;98666.22;;;-0.17;100.00
39897;BME280;25567;48.276;14.242;2022-12-26T05:11:25;98662.16;;;-0.11;100.00
39897;BME280;25567;48.276;14.242;2022-12-26T05:13:54;98664.72;;;-0.20;100.00
39897;BME280;25567;48.276;14.242;2022-12-26T05:16:22;98666.66;;;-0.22;100.00
39897;BME280;25567;48.276;14.242;2022-12-26T05:19:04;98667.34;;;-0.20;100.00
39897;BME280;25567;48.276;14.242;2022-12-26T05:21:46;98648.50;;;-0.05;100.00
39897;BME280;25567;48.276;14.242;2022-12-26T05:24:32;98653.59;;;0.05;100.00
39897;BME280;25567;48.276;14.242;2022-12-26T05:27:19;98659.41;;;-0.10;100.00
39897;BME280;25567;48.276;14.242;2022-12-26T05:30:01;98659.50;;;-0.20;100.00
39897;BME280;25567;48.276;14.242;2022-12-26T05:32:28;98652.69;;;-0.12;100.00
39897;BME280;25567;48.276;14.242;2022-12-26T05:35:10;98654.31;;;-0.20;100.00
39897;BME280;25567;48.276;14.242;2022-12-26T05:37:37;98654.69;;;-0.32;100.00
39897;BME280;25567;48.276;14.242;2022-12-26T05:40:04;98665.13;;;-0.32;100.00
39897;BME280;25567;48.276;14.242;2022-12-26T05:42:31;98664.81;;;-0.29;100.00
39897;BME280;25567;48.276;14.242;2022-12-26T05:44:57;98670.19;;;-0.31;100.00
39897;BME280;25567;48.276;14.242;2022-12-26T05:47:24;98668.06;;;-0.36;100.00
39897;BME280;25567;48.276;14.242;2022-12-26T05:49:51;98678.91;;;-0.40;100.00
39897;BME280;25567;48.276;14.242;2022-12-26T05:52:18;98677.41;;;-0.25;100.00
39897;BME280;25567;48.276;14.242;2022-12-26T05:54:45;98690.84;;;-0.38;100.00
39897;BME280;25567;48.276;14.242;2022-12-26T05:57:11;98688.75;;;-0.34;100.00
39897;BME280;25567;48.276;14.242;2022-12-26T05:59:38;98691.81;;;-0.12;100.00
39897;BME280;25567;48.276;14.242;2022-12-26T06:02:04;98695.19;;;-0.20;100.00
39897;BME280;25567;48.276;14.242;2022-12-26T06:04:32;98697.06;;;-0.04;100.00
39897;BME280;25567;48.276;14.242;2022-12-26T06:07:02;98690.97;;;-0.21;100.00
39897;BME280;25567;48.276;14.242;2022-12-26T06:09:28;98693.97;;;-0.34;100.00
39897;BME280;25567;48.276;14.242;2022-12-26T06:11:55;98697.41;;;-0.25;100.00
39897;BME280;25567;48.276;14.242;2022-12-26T06:14:22;98697.16;;;-0.40;100.00
39897;BME280;25567;48.276;14.242;2022-12-26T06:16:49;98699.50;;;-0.37;100.00
39897;BME280;25567;48.276;14.242;2022-12-26T06:19:16;98701.56;;;-0.41;100.00
39897;BME280;25567;48.276;14.242;2022-12-26T06:21:43;98692.00;;;-0.32;100.00
39897;BME280;25567;48.276;14.242;2022-12-26T06:24:09;98683.16;;;-0.39;100.00
39897;BME280;25567;48.276;14.242;2022-12-26T06:26:36;98695.72;;;-0.35;100.00
39897;BME280;25567;48.276;14.242;2022-12-26T06:29:03;98684.81;;;-0.38;100.00
39897;BME280;25567;48.276;14.242;2022-12-26T06:31:29;98695.72;;;-0.35;100.00
39897;BME280;25567;48.276;14.242;2022-12-26T06:33:57;98679.34;;;-0.27;100.00
39897;BME280;25567;48.276;14.242;2022-12-26T06:36:26;98685.31;;;-0.35;100.00
39897;BME280;25567;48.276;14.242;2022-12-26T06:38:53;98684.50;;;-0.35;100.00
39897;BME280;25567;48.276;14.242;2022-12-26T06:41:21;98682.69;;;-0.35;100.00
39897;BME280;25567;48.276;14.242;2022-12-26T06:43:49;98681.56;;;-0.32;100.00
39897;BME280;25567;48.276;14.242;2022-12-26T06:46:19;98681.03;;;-0.18;100.00
39897;BME280;25567;48.276;14.242;2022-12-26T06:48:46;98689.59;;;-0.25;100.00
39897;BME280;25567;48.276;14.242;2022-12-26T06:51:16;98689.28;;;-0.30;100.00
39897;BME280;25567;48.276;14.242;2022-12-26T06:53:43;98695.28;;;-0.30;100.00
39897;BME280;25567;48.276;14.242;2022-12-26T06:56:13;98692.69;;;-0.30;100.00
39897;BME280;25567;48.276;14.242;2022-12-26T06:58:41;98701.03;;;-0.26;100.00
39897;BME280;25567;48.276;14.242;2022-12-26T07:01:12;98709.00;;;-0.28;100.00
39897;BME280;25567;48.276;14.242;2022-12-26T07:03:41;98708.16;;;-0.28;100.00
39897;BME280;25567;48.276;14.242;2022-12-26T07:08:53;98707.50;;;-0.04;100.00
39897;BME280;25567;48.276;14.242;2022-12-26T07:11:22;98716.00;;;-0.28;100.00
39897;BME280;25567;48.276;14.242;2022-12-26T07:13:50;98707.50;;;-0.04;100.00
39897;BME280;25567;48.276;14.242;2022-12-26T07:16:17;98725.00;;;0.04;100.00
39897;BME280;25567;48.276;14.242;2022-12-26T07:18:44;98725.66;;;0.06;100.00
39897;BME280;25567;48.276;14.242;2022-12-26T07:21:13;98740.16;;;0.00;100.00
39897;BME280;25567;48.276;14.242;2022-12-26T07:23:40;98736.66;;;-0.09;100.00
39897;BME280;25567;48.276;14.242;2022-12-26T07:26:07;98749.19;;;-0.12;100.00
39897;BME280;25567;48.276;14.242;2022-12-26T07:28:34;98736.84;;;-0.28;100.00
39897;BME280;25567;48.276;14.242;2022-12-26T07:31:01;98741.03;;;-0.36;100.00
39897;BME280;25567;48.276;14.242;2022-12-26T07:33:29;98745.56;;;-0.38;100.00
39897;BME280;25567;48.276;14.242;2022-12-26T07:35:59;98735.94;;;-0.19;100.00
39897;BME280;25567;48.276;14.242;2022-12-26T07:38:28;98737.31;;;-0.33;100.00
39897;BME280;25567;48.276;14.242;2022-12-26T07:40:55;98745.13;;;-0.51;100.00
39897;BME280;25567;48.276;14.242;2022-12-26T07:43:22;98746.09;;;-0.34;100.00
39897;BME280;25567;48.276;14.242;2022-12-26T07:45:50;98752.06;;;-0.42;100.00
39897;BME280;25567;48.276;14.242;2022-12-26T07:48:17;98743.78;;;-0.37;100.00
39897;BME280;25567;48.276;14.242;2022-12-26T07:50:44;98757.63;;;-0.37;100.00
39897;BME280;25567;48.276;14.242;2022-12-26T07:53:13;98756.09;;;-0.47;100.00
39897;BME280;25567;48.276;14.242;2022-12-26T07:55:41;98758.06;;;-0.41;100.00
39897;BME280;25567;48.276;14.242;2022-12-26T07:58:07;98764.50;;;-0.36;100.00
39897;BME280;25567;48.276;14.242;2022-12-26T08:00:34;98771.25;;;-0.25;100.00
39897;BME280;25567;48.276;14.242;2022-12-26T08:03:01;98779.97;;;-0.34;100.00
39897;BME280;25567;48.276;14.242;2022-12-26T08:05:32;98778.19;;;-0.34;100.00
39897;BME280;25567;48.276;14.242;2022-12-26T08:07:59;98786.38;;;-0.28;100.00
39897;BME280;25567;48.276;14.242;2022-12-26T08:10:26;98780.56;;;-0.22;100.00
39897;BME280;25567;48.276;14.242;2022-12-26T08:12:53;98775.19;;;-0.03;100.00
39897;BME280;25567;48.276;14.242;2022-12-26T08:15:19;98779.44;;;-0.20;100.00
39897;BME280;25567;48.276;14.242;2022-12-26T08:17:46;98783.44;;;-0.25;100.00
39897;BME280;25567;48.276;14.242;2022-12-26T08:20:13;98781.38;;;-0.22;100.00
39897;BME280;25567;48.276;14.242;2022-12-26T08:22:39;98784.13;;;-0.23;100.00
39897;BME280;25567;48.276;14.242;2022-12-26T08:25:07;98777.97;;;-0.22;100.00
39897;BME280;25567;48.276;14.242;2022-12-26T08:27:34;98777.50;;;-0.18;100.00
39897;BME280;25567;48.276;14.242;2022-12-26T08:30:01;98772.44;;;-0.19;100.00
39897;BME280;25567;48.276;14.242;2022-12-26T08:32:27;98785.88;;;-0.06;100.00
39897;BME280;25567;48.276;14.242;2022-12-26T08:34:54;98782.69;;;0.01;100.00
39897;BME280;25567;48.276;14.242;2022-12-26T08:37:21;98778.84;;;0.13;100.00
39897;BME280;25567;48.276;14.242;2022-12-26T08:39:50;98783.25;;;0.12;100.00
39897;BME280;25567;48.276;14.242;2022-12-26T08:42:20;98775.88;;;0.08;100.00
39897;BME280;25567;48.276;14.242;2022-12-26T08:44:47;98767.41;;;0.06;100.00
39897;BME280;25567;48.276;14.242;2022-12-26T08:47:13;98770.09;;;0.22;100.00
39897;BME280;25567;48.276;14.242;2022-12-26T08:49:40;98773.44;;;0.32;100.00
39897;BME280;25567;48.276;14.242;2022-12-26T08:52:10;98769.00;;;0.33;100.00
39897;BME280;25567;48.276;14.242;2022-12-26T08:54:37;98757.16;;;0.39;100.00
39897;BME280;25567;48.276;14.242;2022-12-26T08:57:03;98767.59;;;0.39;100.00
39897;BME280;25567;48.276;14.242;2022-12-26T08:59:30;98765.59;;;0.32;100.00
39897;BME280;25567;48.276;14.242;2022-12-26T09:01:57;98764.31;;;0.37;100.00
39897;BME280;25567;48.276;14.242;2022-12-26T09:04:24;98764.78;;;0.32;100.00
39897;BME280;25567;48.276;14.242;2022-12-26T09:06:51;98766.16;;;0.18;100.00
39897;BME280;25567;48.276;14.242;2022-12-26T09:09:17;98768.63;;;0.20;100.00
39897;BME280;25567;48.276;14.242;2022-12-26T09:11:44;98774.16;;;0.16;100.00
39897;BME280;25567;48.276;14.242;2022-12-26T09:14:11;98776.59;;;0.18;100.00
39897;BME280;25567;48.276;14.242;2022-12-26T09:16:40;98766.31;;;0.16;100.00
39897;BME280;25567;48.276;14.242;2022-12-26T09:19:15;98771.69;;;0.15;100.00
39897;BME280;25567;48.276;14.242;2022-12-26T09:21:43;98770.34;;;0.37;100.00
39897;BME280;25567;48.276;14.242;2022-12-26T09:24:15;98778.88;;;0.47;100.00
39897;BME280;25567;48.276;14.242;2022-12-26T09:26:43;98787.59;;;0.56;100.00
39897;BME280;25567;48.276;14.242;2022-12-26T09:29:13;98769.81;;;0.60;100.00
39897;BME280;25567;48.276;14.242;2022-12-26T09:31:40;98773.25;;;0.60;100.00
39897;BME280;25567;48.276;14.242;2022-12-26T09:34:07;98783.81;;;0.51;100.00
39897;BME280;25567;48.276;14.242;2022-12-26T09:36:36;98787.19;;;0.43;100.00
39897;BME280;25567;48.276;14.242;2022-12-26T09:39:04;98785.06;;;0.46;100.00
39897;BME280;25567;48.276;14.242;2022-12-26T09:50:22;98772.66;;;0.75;100.00
39897;BME280;25567;48.276;14.242;2022-12-26T09:55:43;98763.00;;;0.75;100.00
39897;BME280;25567;48.276;14.242;2022-12-26T10:01:06;98750.44;;;0.71;100.00
39897;BME280;25567;48.276;14.242;2022-12-26T10:03:39;98738.31;;;0.53;100.00
39897;BME280;25567;48.276;14.242;2022-12-26T10:06:13;98751.06;;;0.64;100.00
39897;BME280;25567;48.276;14.242;2022-12-26T10:11:24;98743.94;;;0.75;100.00
39897;BME280;25567;48.276;14.242;2022-12-26T10:14:00;98716.25;;;0.98;100.00
39897;BME280;25567;48.276;14.242;2022-12-26T10:16:42;98716.53;;;0.79;100.00
39897;BME280;25567;48.276;14.242;2022-12-26T10:19:21;98726.34;;;0.93;100.00
39897;BME280;25567;48.276;14.242;2022-12-26T10:22:28;98721.56;;;0.80;100.00
39897;BME280;25567;48.276;14.242;2022-12-26T10:24:59;98711.97;;;0.89;100.00
39897;BME280;25567;48.276;14.242;2022-12-26T10:27:30;98716.53;;;0.79;100.00
39897;BME280;25567;48.276;14.242;2022-12-26T10:30:03;98710.63;;;0.77;100.00
39897;BME280;25567;48.276;14.242;2022-12-26T10:32:38;98722.06;;;0.76;100.00
39897;BME280;25567;48.276;14.242;2022-12-26T10:37:46;98722.25;;;0.82;100.00
39897;BME280;25567;48.276;14.242;2022-12-26T10:40:20;98719.19;;;1.04;100.00
39897;BME280;25567;48.276;14.242;2022-12-26T10:42:53;98709.09;;;1.17;100.00
39897;BME280;25567;48.276;14.242;2022-12-26T10:47:50;98694.88;;;1.20;100.00
39897;BME280;25567;48.276;14.242;2022-12-26T10:50:20;98693.88;;;1.21;100.00
39897;BME280;25567;48.276;14.242;2022-12-26T10:52:53;98693.25;;;1.19;100.00
39897;BME280;25567;48.276;14.242;2022-12-26T10:55:26;98697.84;;;1.25;100.00
39897;BME280;25567;48.276;14.242;2022-12-26T10:58:13;98693.41;;;1.42;100.00
39897;BME280;25567;48.276;14.242;2022-12-26T11:00:41;98685.56;;;1.58;100.00
39897;BME280;25567;48.276;14.242;2022-12-26T11:03:12;98690.13;;;1.64;100.00
39897;BME280;25567;48.276;14.242;2022-12-26T11:05:55;98680.66;;;1.72;100.00
39897;BME280;25567;48.276;14.242;2022-12-26T11:08:45;98679.50;;;1.74;100.00
39897;BME280;25567;48.276;14.242;2022-12-26T11:11:21;98672.78;;;1.80;100.00
39897;BME280;25567;48.276;14.242;2022-12-26T11:13:51;98668.53;;;1.79;100.00
39897;BME280;25567;48.276;14.242;2022-12-26T11:16:33;98663.31;;;1.87;100.00
39897;BME280;25567;48.276;14.242;2022-12-26T11:19:01;98669.84;;;1.91;100.00
39897;BME280;25567;48.276;14.242;2022-12-26T11:21:29;98660.34;;;1.90;100.00
39897;BME280;25567;48.276;14.242;2022-12-26T11:24:16;98671.13;;;1.95;100.00
39897;BME280;25567;48.276;14.242;2022-12-26T11:26:44;98667.53;;;1.96;100.00
39897;BME280;25567;48.276;14.242;2022-12-26T11:29:20;98663.63;;;1.84;100.00
39897;BME280;25567;48.276;14.242;2022-12-26T11:31:52;98663.28;;;1.95;100.00
39897;BME280;25567;48.276;14.242;2022-12-26T11:34:27;98661.28;;;2.06;100.00
39897;BME280;25567;48.276;14.242;2022-12-26T11:36:55;98663.91;;;2.06;100.00
39897;BME280;25567;48.276;14.242;2022-12-26T11:39:26;98670.09;;;2.13;100.00
39897;BME280;25567;48.276;14.242;2022-12-26T11:41:54;98657.88;;;1.97;100.00
39897;BME280;25567;48.276;14.242;2022-12-26T11:44:25;98648.28;;;1.81;100.00
39897;BME280;25567;48.276;14.242;2022-12-26T11:46:58;98648.59;;;1.86;100.00
39897;BME280;25567;48.276;14.242;2022-12-26T11:49:37;98642.31;;;2.04;100.00
39897;BME280;25567;48.276;14.242;2022-12-26T11:55:27;98638.44;;;1.91;100.00
39897;BME280;25567;48.276;14.242;2022-12-26T12:00:24;98627.50;;;1.88;100.00
39897;BME280;25567;48.276;14.242;2022-12-26T12:02:51;98628.88;;;2.07;100.00
39897;BME280;25567;48.276;14.242;2022-12-26T12:05:37;98627.88;;;2.16;100.00
39897;BME280;25567;48.276;14.242;2022-12-26T12:10:56;98627.78;;;2.41;100.00
39897;BME280;25567;48.276;14.242;2022-12-26T12:13:44;98630.31;;;2.26;100.00
39897;BME280;25567;48.276;14.242;2022-12-26T12:19:42;98616.13;;;2.12;100.00
39897;BME280;25567;48.276;14.242;2022-12-26T12:30:25;98619.22;;;2.15;100.00
39897;BME280;25567;48.276;14.242;2022-12-26T12:36:00;98617.25;;;2.17;100.00
39897;BME280;25567;48.276;14.242;2022-12-26T12:41:04;98594.34;;;2.20;100.00
39897;BME280;25567;48.276;14.242;2022-12-26T12:52:14;98592.66;;;2.58;100.00
39897;BME280;25567;48.276;14.242;2022-12-26T12:57:37;98581.66;;;2.86;100.00
39897;BME280;25567;48.276;14.242;2022-12-26T13:03:08;98586.88;;;2.86;100.00
39897;BME280;25567;48.276;14.242;2022-12-26T13:08:25;98579.84;;;2.63;100.00
39897;BME280;25567;48.276;14.242;2022-12-26T13:11:00;98578.56;;;2.82;100.00
39897;BME280;25567;48.276;14.242;2022-12-26T13:13:36;98587.53;;;2.88;100.00
39897;BME280;25567;48.276;14.242;2022-12-26T13:16:19;98575.34;;;2.95;100.00
39897;BME280;25567;48.276;14.242;2022-12-26T13:18:55;98584.78;;;3.05;100.00
39897;BME280;25567;48.276;14.242;2022-12-26T13:21:24;98575.13;;;3.05;100.00
39897;BME280;25567;48.276;14.242;2022-12-26T13:23:57;98570.84;;;2.89;100.00
39897;BME280;25567;48.276;14.242;2022-12-26T13:26:44;98569.28;;;2.80;100.00
39897;BME280;25567;48.276;14.242;2022-12-26T13:29:18;98570.56;;;2.84;100.00
39897;BME280;25567;48.276;14.242;2022-12-26T13:31:49;98580.56;;;2.80;100.00
39897;BME280;25567;48.276;14.242;2022-12-26T13:34:22;98579.25;;;2.99;100.00
39897;BME280;25567;48.276;14.242;2022-12-26T13:36:51;98588.47;;;2.95;100.00
39897;BME280;25567;48.276;14.242;2022-12-26T13:39:30;98586.56;;;2.89;100.00
39897;BME280;25567;48.276;14.242;2022-12-26T13:42:16;98588.47;;;2.95;100.00
39897;BME280;25567;48.276;14.242;2022-12-26T13:53:31;98606.47;;;2.98;100.00
39897;BME280;25567;48.276;14.242;2022-12-26T13:55:59;98609.63;;;3.09;100.00
39897;BME280;25567;48.276;14.242;2022-12-26T14:12:29;98639.63;;;3.06;100.00
39897;BME280;25567;48.276;14.242;2022-12-26T14:17:47;98649.13;;;3.07;100.00
39897;BME280;25567;48.276;14.242;2022-12-26T14:29:11;98669.56;;;3.58;100.00
39897;BME280;25567;48.276;14.242;2022-12-26T14:37:35;98706.88;;;3.60;100.00
39897;BME280;25567;48.276;14.242;2022-12-26T14:43:01;98706.44;;;3.57;100.00
39897;BME280;25567;48.276;14.242;2022-12-26T14:45:44;98692.03;;;3.53;100.00
39897;BME280;25567;48.276;14.242;2022-12-26T14:53:41;98703.66;;;3.58;100.00
39897;BME280;25567;48.276;14.242;2022-12-26T14:58:44;98716.31;;;3.70;100.00
39897;BME280;25567;48.276;14.242;2022-12-26T15:20:40;98776.69;;;3.84;100.00
39897;BME280;25567;48.276;14.242;2022-12-26T15:23:31;98766.22;;;3.84;100.00
39897;BME280;25567;48.276;14.242;2022-12-26T15:26:14;98761.44;;;3.88;100.00
39897;BME280;25567;48.276;14.242;2022-12-26T15:28:52;98746.25;;;3.98;100.00
39897;BME280;25567;48.276;14.242;2022-12-26T15:31:30;98753.06;;;4.08;100.00
39897;BME280;25567;48.276;14.242;2022-12-26T15:36:59;98776.78;;;4.29;100.00
39897;BME280;25567;48.276;14.242;2022-12-26T15:42:25;98782.06;;;4.44;100.00
39897;BME280;25567;48.276;14.242;2022-12-26T15:45:15;98787.75;;;4.48;100.00
39897;BME280;25567;48.276;14.242;2022-12-26T15:48:04;98792.91;;;4.56;100.00
39897;BME280;25567;48.276;14.242;2022-12-26T15:58:56;98795.97;;;4.15;100.00
39897;BME280;25567;48.276;14.242;2022-12-26T16:01:39;98807.47;;;4.14;100.00
39897;BME280;25567;48.276;14.242;2022-12-26T16:04:17;98804.56;;;4.09;100.00
39897;BME280;25567;48.276;14.242;2022-12-26T16:07:01;98809.53;;;4.04;100.00
39897;BME280;25567;48.276;14.242;2022-12-26T16:09:48;98803.81;;;4.00;100.00
39897;BME280;25567;48.276;14.242;2022-12-26T16:12:29;98814.59;;;4.05;100.00
39897;BME280;25567;48.276;14.242;2022-12-26T16:17:39;98808.66;;;4.11;100.00
39897;BME280;25567;48.276;14.242;2022-12-26T16:23:13;98823.22;;;4.14;100.00
39897;BME280;25567;48.276;14.242;2022-12-26T16:25:50;98824.13;;;4.21;100.00
39897;BME280;25567;48.276;14.242;2022-12-26T16:28:23;98830.94;;;4.30;100.00
39897;BME280;25567;48.276;14.242;2022-12-26T16:30:50;98829.06;;;4.39;100.00
39897;BME280;25567;48.276;14.242;2022-12-26T16:33:18;98832.16;;;4.58;100.00
39897;BME280;25567;48.276;14.242;2022-12-26T16:35:45;98840.25;;;4.71;100.00
39897;BME280;25567;48.276;14.242;2022-12-26T16:38:15;98834.09;;;4.79;100.00
39897;BME280;25567;48.276;14.242;2022-12-26T16:40:45;98835.59;;;4.73;100.00
39897;BME280;25567;48.276;14.242;2022-12-26T16:43:24;98832.88;;;4.66;100.00